AXY735 SBJH-SABE
Flight info
| Callsign | AXY735 |
|---|---|
| Flight time | 2h 10m |
| Altitude | 38000 |
| Route | UBSOD UZ38 UMRUD UN741 PAPIX PAPIX2R |
| Aircraft | C750/M-SBDE3FGHRWXY/S |
Departure
| Time | 2026-05-07 09:53 |
|---|---|
| Airport | São Paulo Catarina Executive Airport (SBJH) |
Arrival
| Time | 2026-05-07 12:03 |
|---|---|
| Airport | Aeroparque Jorge Newbery (SABE) |
| Time | Latitude | Longitude | Altitude | Speed | Heading |
|---|---|---|---|---|---|
| 2026-05-07 09:43 | -23.42822 | -47.17602 | 2546 ft | 0 kts | 98° |
| 2026-05-07 09:50 | -23.42812 | -47.17594 | 2546 ft | 2 kts | 8° |
| 2026-05-07 09:50 | -23.42804 | -47.17615 | 2547 ft | 5 kts | 272° |
| 2026-05-07 09:51 | -23.42792 | -47.17662 | 2546 ft | 7 kts | 320° |
| 2026-05-07 09:51 | -23.42740 | -47.17661 | 2546 ft | 7 kts | 5° |
| 2026-05-07 09:51 | -23.42703 | -47.17658 | 2548 ft | 6 kts | 4° |
| 2026-05-07 09:51 | -23.42673 | -47.17656 | 2550 ft | 2 kts | 4° |
| 2026-05-07 09:52 | -23.42643 | -47.17657 | 2552 ft | 9 kts | 354° |
| 2026-05-07 09:52 | -23.42613 | -47.17632 | 2553 ft | 7 kts | 88° |
| 2026-05-07 09:52 | -23.42615 | -47.17598 | 2553 ft | 25 kts | 94° |
| 2026-05-07 09:52 | -23.42654 | -47.16993 | 2542 ft | 130 kts | 94° |
| 2026-05-07 09:53 | -23.42719 | -47.15933 | 3002 ft | 146 kts | 94° |
| 2026-05-07 09:53 | -23.42793 | -47.14790 | 3521 ft | 162 kts | 93° |
| 2026-05-07 09:53 | -23.42925 | -47.13465 | 3883 ft | 190 kts | 94° |
| 2026-05-07 09:53 | -23.43042 | -47.12469 | 4103 ft | 209 kts | 94° |
| 2026-05-07 09:54 | -23.43311 | -47.10254 | 4715 ft | 228 kts | 94° |
| 2026-05-07 09:54 | -23.43944 | -47.08645 | 5267 ft | 246 kts | 127° |
| 2026-05-07 09:54 | -23.45484 | -47.07619 | 5371 ft | 282 kts | 164° |
| 2026-05-07 09:54 | -23.46835 | -47.07578 | 5747 ft | 290 kts | 188° |
| 2026-05-07 09:55 | -23.48760 | -47.08088 | 6897 ft | 282 kts | 195° |
| 2026-05-07 09:55 | -23.50709 | -47.08509 | 7783 ft | 289 kts | 187° |
| 2026-05-07 09:55 | -23.52729 | -47.08637 | 8764 ft | 292 kts | 181° |
| 2026-05-07 09:55 | -23.54758 | -47.08705 | 9656 ft | 299 kts | 182° |
| 2026-05-07 09:56 | -23.56853 | -47.08874 | 10370 ft | 309 kts | 184° |
| 2026-05-07 09:56 | -23.59088 | -47.09087 | 10563 ft | 336 kts | 184° |
| 2026-05-07 09:56 | -23.61517 | -47.09284 | 10644 ft | 363 kts | 183° |
| 2026-05-07 09:56 | -23.64055 | -47.09469 | 11317 ft | 365 kts | 183° |
| 2026-05-07 09:57 | -23.66602 | -47.09668 | 12066 ft | 368 kts | 183° |
| 2026-05-07 09:57 | -23.69164 | -47.09879 | 12778 ft | 370 kts | 183° |
| 2026-05-07 09:57 | -23.71739 | -47.10085 | 13492 ft | 373 kts | 183° |
| 2026-05-07 09:57 | -23.74339 | -47.10289 | 14163 ft | 376 kts | 183° |
| 2026-05-07 09:58 | -23.76953 | -47.10495 | 14796 ft | 378 kts | 184° |
| 2026-05-07 09:58 | -23.79588 | -47.10705 | 15414 ft | 381 kts | 184° |
| 2026-05-07 09:58 | -23.82236 | -47.10917 | 16047 ft | 383 kts | 184° |
| 2026-05-07 09:58 | -23.84912 | -47.11128 | 16685 ft | 386 kts | 184° |
| 2026-05-07 09:59 | -23.87607 | -47.11342 | 17348 ft | 389 kts | 184° |
| 2026-05-07 09:59 | -23.90315 | -47.11558 | 18020 ft | 392 kts | 184° |
| 2026-05-07 09:59 | -23.93063 | -47.11776 | 18623 ft | 397 kts | 184° |
| 2026-05-07 09:59 | -23.95824 | -47.11996 | 19270 ft | 398 kts | 184° |
| 2026-05-07 10:00 | -23.98595 | -47.12217 | 19942 ft | 400 kts | 185° |
| 2026-05-07 10:00 | -24.01387 | -47.12440 | 20575 ft | 403 kts | 185° |
| 2026-05-07 10:00 | -24.04191 | -47.12663 | 21221 ft | 406 kts | 185° |
| 2026-05-07 10:00 | -24.07022 | -47.12888 | 21796 ft | 411 kts | 185° |
| 2026-05-07 10:01 | -24.09848 | -47.13114 | 22421 ft | 414 kts | 185° |
| 2026-05-07 10:01 | -24.12738 | -47.13345 | 23044 ft | 418 kts | 186° |
| 2026-05-07 10:01 | -24.15653 | -47.13578 | 23670 ft | 421 kts | 186° |
| 2026-05-07 10:01 | -24.18582 | -47.13812 | 24221 ft | 423 kts | 186° |
| 2026-05-07 10:02 | -24.21523 | -47.14047 | 24800 ft | 424 kts | 186° |
| 2026-05-07 10:02 | -24.24442 | -47.14541 | 25316 ft | 424 kts | 195° |
| 2026-05-07 10:02 | -24.27249 | -47.15537 | 25913 ft | 423 kts | 204° |
| 2026-05-07 10:02 | -24.29878 | -47.16988 | 26482 ft | 424 kts | 212° |
| 2026-05-07 10:03 | -24.32367 | -47.18724 | 27026 ft | 425 kts | 214° |
| 2026-05-07 10:03 | -24.34872 | -47.20464 | 27597 ft | 427 kts | 213° |
| 2026-05-07 10:03 | -24.37397 | -47.22203 | 28136 ft | 429 kts | 213° |
| 2026-05-07 10:03 | -24.39897 | -47.23938 | 28677 ft | 431 kts | 213° |
| 2026-05-07 10:04 | -24.42433 | -47.25710 | 29211 ft | 433 kts | 214° |
| 2026-05-07 10:04 | -24.44995 | -47.27495 | 29738 ft | 435 kts | 213° |
| 2026-05-07 10:04 | -24.47565 | -47.29280 | 30222 ft | 437 kts | 213° |
| 2026-05-07 10:04 | -24.50143 | -47.31073 | 30657 ft | 439 kts | 213° |
| 2026-05-07 10:05 | -24.52728 | -47.32876 | 31125 ft | 439 kts | 214° |
| 2026-05-07 10:05 | -24.55290 | -47.34662 | 31802 ft | 434 kts | 214° |
| 2026-05-07 10:05 | -24.57799 | -47.36411 | 32460 ft | 430 kts | 214° |
| 2026-05-07 10:05 | -24.60313 | -47.38165 | 33121 ft | 426 kts | 214° |
| 2026-05-07 10:06 | -24.62808 | -47.39907 | 33753 ft | 424 kts | 214° |
| 2026-05-07 10:06 | -24.65291 | -47.41642 | 34297 ft | 422 kts | 214° |
| 2026-05-07 10:06 | -24.67765 | -47.43369 | 34876 ft | 419 kts | 214° |
| 2026-05-07 10:06 | -24.70213 | -47.45081 | 35460 ft | 415 kts | 214° |
| 2026-05-07 10:07 | -24.72642 | -47.46780 | 36053 ft | 412 kts | 214° |
| 2026-05-07 10:07 | -24.75051 | -47.48466 | 36659 ft | 409 kts | 214° |
| 2026-05-07 10:07 | -24.77441 | -47.50139 | 37276 ft | 406 kts | 214° |
| 2026-05-07 10:07 | -24.79810 | -47.51797 | 37870 ft | 401 kts | 214° |
| 2026-05-07 10:08 | -24.82191 | -47.53467 | 37922 ft | 412 kts | 215° |
| 2026-05-07 10:08 | -24.87149 | -47.56946 | 37926 ft | 432 kts | 215° |
| 2026-05-07 10:09 | -24.92284 | -47.60549 | 37923 ft | 447 kts | 215° |
| 2026-05-07 10:09 | -24.97591 | -47.64275 | 37931 ft | 456 kts | 215° |
| 2026-05-07 10:10 | -25.02944 | -47.68038 | 37926 ft | 456 kts | 215° |
| 2026-05-07 10:10 | -25.08296 | -47.71806 | 37924 ft | 457 kts | 215° |
| 2026-05-07 10:11 | -25.13663 | -47.75589 | 37923 ft | 455 kts | 215° |
| 2026-05-07 10:11 | -25.18996 | -47.79352 | 37922 ft | 455 kts | 215° |
| 2026-05-07 10:12 | -25.24321 | -47.83113 | 37920 ft | 454 kts | 215° |
| 2026-05-07 10:12 | -25.29644 | -47.86876 | 37920 ft | 454 kts | 215° |
| 2026-05-07 10:13 | -25.34966 | -47.90645 | 37917 ft | 454 kts | 216° |
| 2026-05-07 10:13 | -25.40289 | -47.94420 | 37917 ft | 454 kts | 216° |
| 2026-05-07 10:14 | -25.45576 | -47.98172 | 37908 ft | 453 kts | 216° |
| 2026-05-07 10:14 | -25.50883 | -48.01943 | 37914 ft | 453 kts | 216° |
| 2026-05-07 10:15 | -25.56178 | -48.05710 | 37912 ft | 452 kts | 216° |
| 2026-05-07 10:15 | -25.61475 | -48.09481 | 37913 ft | 452 kts | 216° |
| 2026-05-07 10:16 | -25.66771 | -48.13251 | 37912 ft | 452 kts | 216° |
| 2026-05-07 10:16 | -25.72065 | -48.17015 | 37912 ft | 452 kts | 216° |
| 2026-05-07 10:17 | -25.77350 | -48.20782 | 37908 ft | 450 kts | 216° |
| 2026-05-07 10:17 | -25.82616 | -48.24536 | 37904 ft | 450 kts | 216° |
| 2026-05-07 10:18 | -25.87854 | -48.28276 | 38002 ft | 448 kts | 216° |
| 2026-05-07 10:18 | -25.93123 | -48.32043 | 38019 ft | 450 kts | 216° |
| 2026-05-07 10:19 | -25.98388 | -48.35808 | 38015 ft | 450 kts | 216° |
| 2026-05-07 10:19 | -26.03647 | -48.39576 | 38015 ft | 450 kts | 216° |
| 2026-05-07 10:20 | -26.08866 | -48.43317 | 38012 ft | 448 kts | 216° |
| 2026-05-07 10:20 | -26.14101 | -48.47075 | 38017 ft | 447 kts | 217° |
| 2026-05-07 10:21 | -26.19327 | -48.50831 | 38018 ft | 447 kts | 217° |
| 2026-05-07 10:21 | -26.24566 | -48.54599 | 38031 ft | 447 kts | 217° |
| 2026-05-07 10:22 | -26.29793 | -48.58364 | 38027 ft | 447 kts | 217° |
| 2026-05-07 10:22 | -26.35023 | -48.62139 | 38046 ft | 447 kts | 217° |
| 2026-05-07 10:23 | -26.40212 | -48.65886 | 38021 ft | 447 kts | 217° |
| 2026-05-07 10:23 | -26.45440 | -48.69668 | 38019 ft | 448 kts | 217° |
| 2026-05-07 10:24 | -26.50656 | -48.73477 | 38012 ft | 447 kts | 218° |
| 2026-05-07 10:24 | -26.55842 | -48.77320 | 38019 ft | 447 kts | 217° |
| 2026-05-07 10:25 | -26.61047 | -48.81147 | 38022 ft | 447 kts | 218° |
| 2026-05-07 10:25 | -26.66204 | -48.84963 | 38039 ft | 448 kts | 218° |
| 2026-05-07 10:26 | -26.71414 | -48.88767 | 38030 ft | 447 kts | 217° |
| 2026-05-07 10:26 | -26.76625 | -48.92569 | 38030 ft | 447 kts | 218° |
| 2026-05-07 10:27 | -26.81823 | -48.96374 | 38023 ft | 446 kts | 218° |
| 2026-05-07 10:27 | -26.87020 | -49.00177 | 38029 ft | 447 kts | 217° |
| 2026-05-07 10:28 | -26.92196 | -49.03969 | 38029 ft | 446 kts | 217° |
| 2026-05-07 10:28 | -26.97401 | -49.07788 | 38034 ft | 447 kts | 218° |
| 2026-05-07 10:29 | -27.02609 | -49.11615 | 38030 ft | 449 kts | 218° |
| 2026-05-07 10:29 | -27.07821 | -49.15444 | 38038 ft | 448 kts | 218° |
| 2026-05-07 10:30 | -27.15624 | -49.21192 | 38037 ft | 448 kts | 218° |
| 2026-05-07 10:30 | -27.20846 | -49.25041 | 38037 ft | 448 kts | 218° |
| 2026-05-07 10:31 | -27.26068 | -49.28898 | 38040 ft | 449 kts | 218° |
| 2026-05-07 10:31 | -27.31249 | -49.32725 | 38040 ft | 446 kts | 219° |
| 2026-05-07 10:32 | -27.36443 | -49.36571 | 38042 ft | 447 kts | 219° |
| 2026-05-07 10:32 | -27.41635 | -49.40414 | 38055 ft | 446 kts | 219° |
| 2026-05-07 10:33 | -27.46827 | -49.44266 | 38055 ft | 447 kts | 219° |
| 2026-05-07 10:33 | -27.52024 | -49.48124 | 38058 ft | 447 kts | 219° |
| 2026-05-07 10:34 | -27.57224 | -49.51988 | 38059 ft | 448 kts | 219° |
| 2026-05-07 10:34 | -27.62437 | -49.55847 | 38060 ft | 449 kts | 219° |
| 2026-05-07 10:35 | -27.67640 | -49.59708 | 38060 ft | 450 kts | 219° |
| 2026-05-07 10:35 | -27.72872 | -49.63594 | 38059 ft | 450 kts | 219° |
| 2026-05-07 10:36 | -27.78157 | -49.67403 | 38060 ft | 451 kts | 218° |
| 2026-05-07 10:36 | -27.83461 | -49.71188 | 38063 ft | 451 kts | 218° |
| 2026-05-07 10:37 | -27.88763 | -49.74972 | 38072 ft | 451 kts | 218° |
| 2026-05-07 10:37 | -27.94087 | -49.78779 | 38056 ft | 452 kts | 219° |
| 2026-05-07 10:38 | -27.99405 | -49.82580 | 38046 ft | 452 kts | 219° |
| 2026-05-07 10:38 | -28.04720 | -49.86389 | 38054 ft | 452 kts | 219° |
| 2026-05-07 10:39 | -28.10008 | -49.90179 | 38045 ft | 452 kts | 219° |
| 2026-05-07 10:39 | -28.15325 | -49.94000 | 38044 ft | 452 kts | 219° |
| 2026-05-07 10:40 | -28.19775 | -49.97195 | 38063 ft | 451 kts | 219° |
| 2026-05-07 10:40 | -28.25046 | -50.00991 | 38042 ft | 452 kts | 219° |
| 2026-05-07 10:41 | -28.30363 | -50.04819 | 38034 ft | 452 kts | 219° |
| 2026-05-07 10:41 | -28.35671 | -50.08648 | 38028 ft | 452 kts | 219° |
| 2026-05-07 10:42 | -28.40966 | -50.12472 | 38026 ft | 451 kts | 219° |
| 2026-05-07 10:42 | -28.46267 | -50.16305 | 38026 ft | 451 kts | 219° |
| 2026-05-07 10:43 | -28.51567 | -50.20144 | 38014 ft | 453 kts | 219° |
| 2026-05-07 10:43 | -28.56892 | -50.24000 | 38014 ft | 453 kts | 219° |
| 2026-05-07 10:44 | -28.62175 | -50.27837 | 38009 ft | 454 kts | 219° |
| 2026-05-07 10:44 | -28.67495 | -50.31699 | 38010 ft | 453 kts | 219° |
| 2026-05-07 10:45 | -28.72798 | -50.35589 | 38002 ft | 451 kts | 221° |
| 2026-05-07 10:45 | -28.77799 | -50.39863 | 37993 ft | 450 kts | 223° |
| 2026-05-07 10:46 | -28.82829 | -50.44120 | 37979 ft | 451 kts | 223° |
| 2026-05-07 10:46 | -28.87863 | -50.48444 | 37988 ft | 453 kts | 223° |
| 2026-05-07 10:47 | -28.92917 | -50.52747 | 37983 ft | 454 kts | 224° |
| 2026-05-07 10:47 | -28.97925 | -50.57041 | 37983 ft | 453 kts | 223° |
| 2026-05-07 10:48 | -29.02974 | -50.61364 | 37970 ft | 453 kts | 224° |
| 2026-05-07 10:48 | -29.08018 | -50.65697 | 37955 ft | 453 kts | 224° |
| 2026-05-07 10:49 | -29.12858 | -50.70287 | 37962 ft | 448 kts | 231° |
| 2026-05-07 10:49 | -29.16883 | -50.75722 | 37948 ft | 447 kts | 236° |
| 2026-05-07 10:50 | -29.20794 | -50.81194 | 37944 ft | 447 kts | 236° |
| 2026-05-07 10:50 | -29.24701 | -50.86727 | 37930 ft | 446 kts | 236° |
| 2026-05-07 10:51 | -29.28605 | -50.92235 | 37927 ft | 448 kts | 236° |
| 2026-05-07 10:51 | -29.32541 | -50.97804 | 37895 ft | 448 kts | 236° |
| 2026-05-07 10:52 | -29.36463 | -51.03355 | 37891 ft | 447 kts | 236° |
| 2026-05-07 10:52 | -29.40346 | -51.08866 | 37876 ft | 447 kts | 236° |
| 2026-05-07 10:53 | -29.44257 | -51.14419 | 37888 ft | 448 kts | 236° |
| 2026-05-07 10:53 | -29.48165 | -51.19980 | 37850 ft | 448 kts | 236° |
| 2026-05-07 10:54 | -29.52075 | -51.25544 | 37858 ft | 447 kts | 236° |
| 2026-05-07 10:54 | -29.55974 | -51.31108 | 37860 ft | 447 kts | 236° |
| 2026-05-07 10:55 | -29.59879 | -51.36684 | 37849 ft | 449 kts | 237° |
| 2026-05-07 10:55 | -29.63798 | -51.42284 | 37850 ft | 449 kts | 237° |
| 2026-05-07 10:56 | -29.67648 | -51.47921 | 37827 ft | 446 kts | 240° |
| 2026-05-07 10:56 | -29.70900 | -51.53947 | 37820 ft | 444 kts | 243° |
| 2026-05-07 10:57 | -29.74135 | -51.59943 | 37826 ft | 444 kts | 243° |
| 2026-05-07 10:57 | -29.77366 | -51.66013 | 37821 ft | 444 kts | 243° |
| 2026-05-07 10:58 | -29.80610 | -51.72075 | 37822 ft | 444 kts | 243° |
| 2026-05-07 10:58 | -29.83837 | -51.78137 | 37822 ft | 444 kts | 243° |
| 2026-05-07 10:59 | -29.87050 | -51.84170 | 37823 ft | 443 kts | 243° |
| 2026-05-07 10:59 | -29.90273 | -51.90238 | 37826 ft | 443 kts | 243° |
| 2026-05-07 11:00 | -29.93490 | -51.96299 | 37823 ft | 443 kts | 243° |
| 2026-05-07 11:00 | -29.96709 | -52.02374 | 37821 ft | 443 kts | 243° |
| 2026-05-07 11:01 | -29.99922 | -52.08448 | 37819 ft | 444 kts | 243° |
| 2026-05-07 11:01 | -30.03118 | -52.14500 | 37818 ft | 444 kts | 243° |
| 2026-05-07 11:02 | -30.06328 | -52.20594 | 37814 ft | 443 kts | 243° |
| 2026-05-07 11:02 | -30.09534 | -52.26687 | 37813 ft | 444 kts | 243° |
| 2026-05-07 11:03 | -30.12742 | -52.32798 | 37813 ft | 446 kts | 243° |
| 2026-05-07 11:03 | -30.15962 | -52.38934 | 37823 ft | 448 kts | 243° |
| 2026-05-07 11:04 | -30.19292 | -52.45092 | 37807 ft | 455 kts | 240° |
| 2026-05-07 11:04 | -30.22815 | -52.51101 | 37811 ft | 454 kts | 240° |
| 2026-05-07 11:05 | -30.26336 | -52.57185 | 37809 ft | 457 kts | 240° |
| 2026-05-07 11:05 | -30.29889 | -52.63274 | 37804 ft | 456 kts | 240° |
| 2026-05-07 11:06 | -30.33418 | -52.69374 | 37804 ft | 456 kts | 240° |
| 2026-05-07 11:06 | -30.36968 | -52.75493 | 37804 ft | 457 kts | 240° |
| 2026-05-07 11:07 | -30.40514 | -52.81636 | 37799 ft | 460 kts | 240° |
| 2026-05-07 11:07 | -30.44053 | -52.87753 | 37796 ft | 458 kts | 240° |
| 2026-05-07 11:08 | -30.47599 | -52.93912 | 37800 ft | 459 kts | 240° |
| 2026-05-07 11:08 | -30.51152 | -53.00081 | 37794 ft | 459 kts | 240° |
| 2026-05-07 11:09 | -30.54700 | -53.06255 | 37785 ft | 460 kts | 240° |
| 2026-05-07 11:09 | -30.58246 | -53.12427 | 37785 ft | 460 kts | 240° |
| 2026-05-07 11:10 | -30.61773 | -53.18578 | 37791 ft | 460 kts | 240° |
| 2026-05-07 11:10 | -30.65328 | -53.24782 | 37791 ft | 460 kts | 240° |
| 2026-05-07 11:11 | -30.68873 | -53.30982 | 37782 ft | 460 kts | 239° |
| 2026-05-07 11:11 | -30.72416 | -53.37188 | 37778 ft | 461 kts | 239° |
| 2026-05-07 11:12 | -30.75965 | -53.43395 | 37777 ft | 462 kts | 239° |
| 2026-05-07 11:12 | -30.79523 | -53.49606 | 37776 ft | 461 kts | 239° |
| 2026-05-07 11:13 | -30.83077 | -53.55833 | 37774 ft | 462 kts | 239° |
| 2026-05-07 11:13 | -30.86628 | -53.62056 | 37774 ft | 462 kts | 239° |
| 2026-05-07 11:14 | -30.90156 | -53.68256 | 37768 ft | 462 kts | 239° |
| 2026-05-07 11:14 | -30.93702 | -53.74492 | 37793 ft | 462 kts | 239° |
| 2026-05-07 11:15 | -30.97257 | -53.80756 | 37766 ft | 462 kts | 239° |
| 2026-05-07 11:15 | -31.00804 | -53.87017 | 37762 ft | 463 kts | 239° |
| 2026-05-07 11:16 | -31.04353 | -53.93289 | 37766 ft | 464 kts | 239° |
| 2026-05-07 11:16 | -31.07906 | -53.99580 | 37771 ft | 463 kts | 239° |
| 2026-05-07 11:17 | -31.11450 | -54.05869 | 37749 ft | 468 kts | 239° |
| 2026-05-07 11:17 | -31.15029 | -54.12219 | 37750 ft | 468 kts | 239° |
| 2026-05-07 11:18 | -31.18604 | -54.18583 | 37737 ft | 468 kts | 239° |
| 2026-05-07 11:18 | -31.22178 | -54.24951 | 37750 ft | 472 kts | 239° |
| 2026-05-07 11:19 | -31.25801 | -54.31420 | 37733 ft | 476 kts | 239° |
| 2026-05-07 11:19 | -31.29434 | -54.37911 | 37730 ft | 476 kts | 239° |
| 2026-05-07 11:20 | -31.33031 | -54.44355 | 37731 ft | 476 kts | 239° |
| 2026-05-07 11:20 | -31.36649 | -54.50843 | 37738 ft | 476 kts | 239° |
| 2026-05-07 11:21 | -31.40242 | -54.57300 | 37717 ft | 473 kts | 239° |
| 2026-05-07 11:21 | -31.43936 | -54.63692 | 37701 ft | 476 kts | 234° |
| 2026-05-07 11:22 | -31.48645 | -54.69210 | 37713 ft | 481 kts | 226° |
| 2026-05-07 11:22 | -31.53562 | -54.74517 | 37725 ft | 480 kts | 226° |
| 2026-05-07 11:23 | -31.58445 | -54.79771 | 37730 ft | 477 kts | 227° |
| 2026-05-07 11:23 | -31.63335 | -54.85056 | 37750 ft | 478 kts | 227° |
| 2026-05-07 11:24 | -31.68222 | -54.90335 | 37735 ft | 477 kts | 227° |
| 2026-05-07 11:24 | -31.73101 | -54.95619 | 37741 ft | 477 kts | 227° |
| 2026-05-07 11:25 | -31.77978 | -55.00907 | 37758 ft | 477 kts | 227° |
| 2026-05-07 11:25 | -31.82880 | -55.06233 | 37741 ft | 479 kts | 228° |
| 2026-05-07 11:26 | -31.86956 | -55.10661 | 37740 ft | 479 kts | 228° |
| 2026-05-07 11:26 | -31.91845 | -55.15989 | 37742 ft | 479 kts | 228° |
| 2026-05-07 11:27 | -31.96740 | -55.21326 | 37733 ft | 479 kts | 228° |
| 2026-05-07 11:27 | -32.01663 | -55.26712 | 37707 ft | 487 kts | 229° |
| 2026-05-07 11:28 | -32.06656 | -55.32171 | 37719 ft | 497 kts | 229° |
| 2026-05-07 11:28 | -32.11738 | -55.37734 | 37715 ft | 499 kts | 229° |
| 2026-05-07 11:29 | -32.16835 | -55.43332 | 37715 ft | 501 kts | 229° |
| 2026-05-07 11:29 | -32.21942 | -55.48939 | 37710 ft | 500 kts | 229° |
| 2026-05-07 11:30 | -32.27009 | -55.54524 | 37715 ft | 503 kts | 230° |
| 2026-05-07 11:30 | -32.32157 | -55.60199 | 37716 ft | 507 kts | 229° |
| 2026-05-07 11:31 | -32.37339 | -55.65925 | 37703 ft | 510 kts | 230° |
| 2026-05-07 11:31 | -32.42527 | -55.71660 | 37693 ft | 510 kts | 230° |
| 2026-05-07 11:32 | -32.50298 | -55.80280 | 37685 ft | 513 kts | 230° |
| 2026-05-07 11:33 | -32.55506 | -55.86070 | 37681 ft | 519 kts | 229° |
| 2026-05-07 11:33 | -32.60779 | -55.91929 | 37681 ft | 519 kts | 230° |
| 2026-05-07 11:34 | -32.66050 | -55.97811 | 37692 ft | 519 kts | 230° |
| 2026-05-07 11:34 | -32.71350 | -56.03732 | 37674 ft | 526 kts | 230° |
| 2026-05-07 11:35 | -32.76672 | -56.09675 | 37670 ft | 525 kts | 230° |
| 2026-05-07 11:35 | -32.81994 | -56.15645 | 37666 ft | 526 kts | 230° |
| 2026-05-07 11:36 | -32.87313 | -56.21610 | 37665 ft | 526 kts | 230° |
| 2026-05-07 11:36 | -32.92598 | -56.27556 | 37664 ft | 526 kts | 230° |
| 2026-05-07 11:37 | -32.97936 | -56.33571 | 37654 ft | 531 kts | 230° |
| 2026-05-07 11:37 | -33.03335 | -56.39690 | 37658 ft | 539 kts | 230° |
| 2026-05-07 11:38 | -33.08774 | -56.45858 | 37636 ft | 539 kts | 230° |
| 2026-05-07 11:38 | -33.14207 | -56.52040 | 37631 ft | 539 kts | 230° |
| 2026-05-07 11:39 | -33.19631 | -56.58218 | 37650 ft | 539 kts | 231° |
| 2026-05-07 11:39 | -33.25099 | -56.64457 | 37617 ft | 546 kts | 231° |
| 2026-05-07 11:39 | -33.27825 | -56.67553 | 37224 ft | 530 kts | 231° |
| 2026-05-07 11:40 | -33.30439 | -56.70523 | 36537 ft | 508 kts | 231° |
| 2026-05-07 11:40 | -33.32916 | -56.73364 | 35890 ft | 491 kts | 232° |
| 2026-05-07 11:40 | -33.35341 | -56.76156 | 35259 ft | 479 kts | 232° |
| 2026-05-07 11:40 | -33.37734 | -56.78903 | 34634 ft | 476 kts | 232° |
| 2026-05-07 11:41 | -33.40137 | -56.81657 | 34007 ft | 480 kts | 232° |
| 2026-05-07 11:41 | -33.42554 | -56.84429 | 33413 ft | 483 kts | 232° |
| 2026-05-07 11:41 | -33.44988 | -56.87223 | 32711 ft | 487 kts | 232° |
| 2026-05-07 11:41 | -33.47444 | -56.90045 | 32064 ft | 489 kts | 232° |
| 2026-05-07 11:42 | -33.49902 | -56.92871 | 31424 ft | 490 kts | 232° |
| 2026-05-07 11:42 | -33.52364 | -56.95704 | 30780 ft | 491 kts | 231° |
| 2026-05-07 11:42 | -33.54838 | -56.98555 | 30130 ft | 493 kts | 231° |
| 2026-05-07 11:42 | -33.57300 | -57.01391 | 29444 ft | 488 kts | 231° |
| 2026-05-07 11:43 | -33.59733 | -57.04191 | 28796 ft | 481 kts | 231° |
| 2026-05-07 11:43 | -33.62099 | -57.06924 | 28174 ft | 476 kts | 231° |
| 2026-05-07 11:43 | -33.64467 | -57.09667 | 27551 ft | 471 kts | 232° |
| 2026-05-07 11:43 | -33.66815 | -57.12382 | 26949 ft | 466 kts | 232° |
| 2026-05-07 11:44 | -33.69133 | -57.15060 | 26323 ft | 457 kts | 233° |
| 2026-05-07 11:44 | -33.71395 | -57.17674 | 25722 ft | 446 kts | 234° |
| 2026-05-07 11:44 | -33.73606 | -57.20242 | 25141 ft | 439 kts | 234° |
| 2026-05-07 11:44 | -33.75782 | -57.22773 | 24566 ft | 432 kts | 234° |
| 2026-05-07 11:45 | -33.77930 | -57.25265 | 23997 ft | 425 kts | 234° |
| 2026-05-07 11:45 | -33.80038 | -57.27709 | 23440 ft | 418 kts | 235° |
| 2026-05-07 11:45 | -33.82107 | -57.30117 | 22841 ft | 411 kts | 235° |
| 2026-05-07 11:45 | -33.84147 | -57.32497 | 22304 ft | 407 kts | 235° |
| 2026-05-07 11:46 | -33.86177 | -57.34864 | 21768 ft | 404 kts | 234° |
| 2026-05-07 11:46 | -33.88190 | -57.37207 | 21236 ft | 400 kts | 234° |
| 2026-05-07 11:46 | -33.90180 | -57.39524 | 20712 ft | 397 kts | 234° |
| 2026-05-07 11:46 | -33.92160 | -57.41837 | 20187 ft | 395 kts | 234° |
| 2026-05-07 11:47 | -33.94102 | -57.44107 | 19673 ft | 392 kts | 234° |
| 2026-05-07 11:47 | -33.96057 | -57.46389 | 19160 ft | 389 kts | 234° |
| 2026-05-07 11:47 | -33.97995 | -57.48654 | 18650 ft | 387 kts | 233° |
| 2026-05-07 11:47 | -33.99920 | -57.50906 | 18141 ft | 384 kts | 233° |
| 2026-05-07 11:48 | -34.01829 | -57.53142 | 17607 ft | 381 kts | 233° |
| 2026-05-07 11:48 | -34.03724 | -57.55361 | 17100 ft | 379 kts | 233° |
| 2026-05-07 11:48 | -34.05608 | -57.57571 | 16597 ft | 376 kts | 232° |
| 2026-05-07 11:48 | -34.07478 | -57.59763 | 16104 ft | 373 kts | 232° |
| 2026-05-07 11:49 | -34.09332 | -57.61937 | 15612 ft | 371 kts | 231° |
| 2026-05-07 11:49 | -34.11178 | -57.64105 | 15129 ft | 368 kts | 231° |
| 2026-05-07 11:49 | -34.13008 | -57.66255 | 14653 ft | 366 kts | 231° |
| 2026-05-07 11:49 | -34.14798 | -57.68359 | 14171 ft | 363 kts | 230° |
| 2026-05-07 11:50 | -34.16595 | -57.70472 | 13694 ft | 359 kts | 230° |
| 2026-05-07 11:50 | -34.18376 | -57.72570 | 13197 ft | 356 kts | 229° |
| 2026-05-07 11:50 | -34.20141 | -57.74649 | 12722 ft | 354 kts | 229° |
| 2026-05-07 11:50 | -34.21901 | -57.76723 | 12255 ft | 352 kts | 229° |
| 2026-05-07 11:51 | -34.23646 | -57.78782 | 11781 ft | 350 kts | 228° |
| 2026-05-07 11:51 | -34.25382 | -57.80832 | 11330 ft | 348 kts | 228° |
| 2026-05-07 11:51 | -34.27106 | -57.82868 | 10878 ft | 341 kts | 227° |
| 2026-05-07 11:51 | -34.28742 | -57.84801 | 10437 ft | 317 kts | 227° |
| 2026-05-07 11:52 | -34.30271 | -57.86609 | 10031 ft | 298 kts | 227° |
| 2026-05-07 11:52 | -34.31716 | -57.88322 | 9644 ft | 286 kts | 227° |
| 2026-05-07 11:52 | -34.33125 | -57.89991 | 9249 ft | 281 kts | 227° |
| 2026-05-07 11:52 | -34.34519 | -57.91643 | 8881 ft | 279 kts | 227° |
| 2026-05-07 11:53 | -34.35905 | -57.93284 | 8517 ft | 278 kts | 226° |
| 2026-05-07 11:53 | -34.37284 | -57.94920 | 8150 ft | 276 kts | 226° |
| 2026-05-07 11:53 | -34.38652 | -57.96542 | 7789 ft | 277 kts | 225° |
| 2026-05-07 11:53 | -34.40024 | -57.98171 | 7416 ft | 275 kts | 224° |
| 2026-05-07 11:54 | -34.41388 | -57.99787 | 7051 ft | 273 kts | 223° |
| 2026-05-07 11:54 | -34.42851 | -58.01248 | 6688 ft | 273 kts | 217° |
| 2026-05-07 11:54 | -34.44343 | -58.02699 | 6336 ft | 276 kts | 217° |
| 2026-05-07 11:54 | -34.45821 | -58.04165 | 5946 ft | 273 kts | 217° |
| 2026-05-07 11:55 | -34.47293 | -58.05608 | 5575 ft | 271 kts | 217° |
| 2026-05-07 11:55 | -34.48740 | -58.07018 | 5224 ft | 269 kts | 217° |
| 2026-05-07 11:55 | -34.50202 | -58.08447 | 4865 ft | 264 kts | 218° |
| 2026-05-07 11:55 | -34.51618 | -58.09834 | 4520 ft | 259 kts | 218° |
| 2026-05-07 11:56 | -34.53017 | -58.11204 | 4172 ft | 259 kts | 218° |
| 2026-05-07 11:56 | -34.54401 | -58.12559 | 3832 ft | 252 kts | 217° |
| 2026-05-07 11:56 | -34.55756 | -58.13887 | 3494 ft | 247 kts | 218° |
| 2026-05-07 11:56 | -34.57036 | -58.15144 | 3175 ft | 233 kts | 217° |
| 2026-05-07 11:57 | -34.58264 | -58.16349 | 2870 ft | 221 kts | 217° |
| 2026-05-07 11:57 | -34.59440 | -58.17501 | 2631 ft | 212 kts | 217° |
| 2026-05-07 11:57 | -34.60571 | -58.18611 | 2639 ft | 209 kts | 217° |
| 2026-05-07 11:57 | -34.61705 | -58.19722 | 2642 ft | 209 kts | 217° |
| 2026-05-07 11:58 | -34.62795 | -58.20796 | 2635 ft | 190 kts | 217° |
| 2026-05-07 11:58 | -34.63756 | -58.21744 | 2626 ft | 171 kts | 216° |
| 2026-05-07 11:58 | -34.64597 | -58.22765 | 2604 ft | 176 kts | 233° |
| 2026-05-07 11:58 | -34.64971 | -58.24210 | 2623 ft | 187 kts | 259° |
| 2026-05-07 11:59 | -34.64715 | -58.25772 | 2519 ft | 201 kts | 288° |
| 2026-05-07 11:59 | -34.63929 | -58.27242 | 2210 ft | 205 kts | 299° |
| 2026-05-07 11:59 | -34.63128 | -58.28628 | 1912 ft | 200 kts | 298° |
| 2026-05-07 11:59 | -34.62377 | -58.29972 | 1942 ft | 191 kts | 296° |
| 2026-05-07 12:00 | -34.61637 | -58.31334 | 1834 ft | 186 kts | 296° |
| 2026-05-07 12:00 | -34.60973 | -58.32491 | 1633 ft | 151 kts | 297° |
| 2026-05-07 12:00 | -34.60400 | -58.33451 | 1389 ft | 133 kts | 296° |
| 2026-05-07 12:00 | -34.59878 | -58.34357 | 1143 ft | 129 kts | 296° |
| 2026-05-07 12:01 | -34.59387 | -58.35238 | 1022 ft | 126 kts | 295° |
| 2026-05-07 12:01 | -34.58908 | -58.36128 | 857 ft | 127 kts | 294° |
| 2026-05-07 12:01 | -34.58442 | -58.37012 | 696 ft | 123 kts | 296° |
| 2026-05-07 12:01 | -34.57988 | -58.37897 | 598 ft | 122 kts | 300° |
| 2026-05-07 12:02 | -34.57510 | -58.38746 | 417 ft | 121 kts | 302° |
| 2026-05-07 12:02 | -34.57041 | -58.39578 | 258 ft | 120 kts | 301° |
| 2026-05-07 12:02 | -34.56573 | -58.40417 | 103 ft | 120 kts | 301° |
| 2026-05-07 12:02 | -34.56122 | -58.41223 | 29 ft | 109 kts | 300° |
| 2026-05-07 12:03 | -34.55745 | -58.41909 | 22 ft | 71 kts | 304° |
| 2026-05-07 12:03 | -34.55607 | -58.42155 | 24 ft | 22 kts | 305° |
| 2026-05-07 12:03 | -34.55518 | -58.42305 | 25 ft | 21 kts | 306° |
| 2026-05-07 12:03 | -34.55437 | -58.42441 | 25 ft | 15 kts | 303° |
| 2026-05-07 12:04 | -34.55371 | -58.42493 | 23 ft | 12 kts | 32° |
| 2026-05-07 12:04 | -34.55364 | -58.42404 | 23 ft | 11 kts | 102° |
| 2026-05-07 12:04 | -34.55376 | -58.42358 | 24 ft | 4 kts | 117° |
| 2026-05-07 12:04 | -34.55398 | -58.42323 | 24 ft | 7 kts | 127° |
| 2026-05-07 12:05 | -34.55432 | -58.42267 | 24 ft | 10 kts | 127° |
| 2026-05-07 12:05 | -34.55476 | -58.42194 | 24 ft | 11 kts | 126° |
| 2026-05-07 12:05 | -34.55520 | -58.42121 | 26 ft | 11 kts | 127° |
| 2026-05-07 12:05 | -34.55565 | -58.42048 | 25 ft | 11 kts | 127° |
| 2026-05-07 12:06 | -34.55613 | -58.41970 | 25 ft | 13 kts | 126° |
| 2026-05-07 12:06 | -34.55667 | -58.41874 | 25 ft | 16 kts | 123° |
| 2026-05-07 12:06 | -34.55736 | -58.41744 | 25 ft | 19 kts | 119° |
| 2026-05-07 12:06 | -34.55789 | -58.41616 | 23 ft | 17 kts | 116° |
| 2026-05-07 12:07 | -34.55841 | -58.41493 | 23 ft | 16 kts | 117° |
| 2026-05-07 12:07 | -34.55893 | -58.41373 | 26 ft | 16 kts | 116° |
| 2026-05-07 12:07 | -34.55947 | -58.41258 | 24 ft | 15 kts | 127° |
| 2026-05-07 12:07 | -34.56010 | -58.41154 | 26 ft | 15 kts | 127° |
| 2026-05-07 12:08 | -34.56050 | -58.41053 | 24 ft | 12 kts | 53° |
| 2026-05-07 12:08 | -34.55983 | -58.41061 | 24 ft | 5 kts | 326° |
| 2026-05-07 12:08 | -34.55974 | -58.41094 | 24 ft | 4 kts | 221° |
| 2026-05-07 12:08 | -34.55991 | -58.41097 | 24 ft | 1 kts | 177° |
| 2026-05-07 12:09 | -34.55994 | -58.41097 | 24 ft | 0 kts | 176° |